KHWD/HWD METAR and TAF weather

Enter ICAO airport designator
Station Type Date Time Source
KHWD METAR 2019/02/16 02:54 UTC NOAA

KHWD 160254Z 21005KT 10SM FEW038 OVC055 09/03 A3005 RMK AO2 SLP186 T00940033 53012


Station Type Date Time Source
KHWD Decoded METAR 2019/02/16 02:54 UTC NOAA

HAYWARD AIR TERMINAL, CA, United States (KHWD) 37-40N 122-07W 21M
Feb 15, 2019 - 09:54 PM EST / 2019.02.16 0254 UTC
Wind: from the SSW (210 degrees) at 6 MPH (5 KT):0
Visibility: 10 mile(s):0
Sky conditions: overcast
Temperature: 48.9 F (9.4 C)
Dew Point: 37.9 F (3.3 C)
Relative Humidity: 65%
Pressure (altimeter): 30.05 in. Hg (1017 hPa)
Pressure tendency: 0.04 inches (1.2 hPa) higher than three hours ago
ob: KHWD 160254Z 21005KT 10SM FEW038 OVC055 09/03 A3005 RMK AO2 SLP186 T00940033 53012
cycle: 3

Station Type Date Time Source
KHWD TAF UTC NOAA

Error!


Example: see airport list